sensor_id;sensor_type;location;lat;lon;timestamp;temperature;humidity
10294;DHT22;5192;50.328;7.610;2022-11-15T00:01:15;8.10;99.90
10294;DHT22;5192;50.328;7.610;2022-11-15T00:03:44;8.00;99.90
10294;DHT22;5192;50.328;7.610;2022-11-15T00:06:13;8.00;99.90
10294;DHT22;5192;50.328;7.610;2022-11-15T00:08:45;8.00;99.90
10294;DHT22;5192;50.328;7.610;2022-11-15T00:11:12;8.00;99.90
10294;DHT22;5192;50.328;7.610;2022-11-15T00:13:41;8.00;99.90
10294;DHT22;5192;50.328;7.610;2022-11-15T00:16:08;8.00;99.90
10294;DHT22;5192;50.328;7.610;2022-11-15T00:18:34;8.00;99.90
10294;DHT22;5192;50.328;7.610;2022-11-15T00:21:07;8.10;99.90
10294;DHT22;5192;50.328;7.610;2022-11-15T00:23:34;8.10;99.90
10294;DHT22;5192;50.328;7.610;2022-11-15T00:26:01;8.20;99.90
10294;DHT22;5192;50.328;7.610;2022-11-15T00:28:35;8.20;99.90
10294;DHT22;5192;50.328;7.610;2022-11-15T00:31:08;8.30;99.90
10294;DHT22;5192;50.328;7.610;2022-11-15T00:33:34;8.50;99.90
10294;DHT22;5192;50.328;7.610;2022-11-15T00:36:08;8.50;99.90
10294;DHT22;5192;50.328;7.610;2022-11-15T00:38:42;8.40;99.90
10294;DHT22;5192;50.328;7.610;2022-11-15T00:41:13;8.30;99.90
10294;DHT22;5192;50.328;7.610;2022-11-15T00:43:41;8.30;99.90
10294;DHT22;5192;50.328;7.610;2022-11-15T00:46:10;8.30;99.90
10294;DHT22;5192;50.328;7.610;2022-11-15T00:48:56;8.30;99.90
10294;DHT22;5192;50.328;7.610;2022-11-15T00:51:23;8.40;99.90
10294;DHT22;5192;50.328;7.610;2022-11-15T00:53:50;8.40;99.90
10294;DHT22;5192;50.328;7.610;2022-11-15T00:56:15;8.50;99.90
10294;DHT22;5192;50.328;7.610;2022-11-15T00:58:42;8.90;99.90
10294;DHT22;5192;50.328;7.610;2022-11-15T01:01:12;8.90;99.90
10294;DHT22;5192;50.328;7.610;2022-11-15T01:03:47;9.20;99.90
10294;DHT22;5192;50.328;7.610;2022-11-15T01:06:13;9.50;99.90
10294;DHT22;5192;50.328;7.610;2022-11-15T01:08:40;9.80;99.90
10294;DHT22;5192;50.328;7.610;2022-11-15T01:11:09;10.00;99.90
10294;DHT22;5192;50.328;7.610;2022-11-15T01:13:38;10.40;99.90
10294;DHT22;5192;50.328;7.610;2022-11-15T01:16:35;10.60;99.90
10294;DHT22;5192;50.328;7.610;2022-11-15T01:19:01;10.70;99.90
10294;DHT22;5192;50.328;7.610;2022-11-15T01:21:28;10.90;99.90
10294;DHT22;5192;50.328;7.610;2022-11-15T01:23:56;11.10;99.90
10294;DHT22;5192;50.328;7.610;2022-11-15T01:26:23;11.20;99.90
10294;DHT22;5192;50.328;7.610;2022-11-15T01:28:51;11.30;99.90
10294;DHT22;5192;50.328;7.610;2022-11-15T01:31:22;11.40;99.90
10294;DHT22;5192;50.328;7.610;2022-11-15T01:33:50;11.40;99.90
10294;DHT22;5192;50.328;7.610;2022-11-15T01:36:21;11.40;99.90
10294;DHT22;5192;50.328;7.610;2022-11-15T01:38:58;11.40;99.90
10294;DHT22;5192;50.328;7.610;2022-11-15T01:41:31;11.40;99.90
10294;DHT22;5192;50.328;7.610;2022-11-15T01:47:20;11.30;99.90
10294;DHT22;5192;50.328;7.610;2022-11-15T01:50:00;11.30;99.90
10294;DHT22;5192;50.328;7.610;2022-11-15T01:52:36;11.30;99.90
10294;DHT22;5192;50.328;7.610;2022-11-15T01:55:23;11.30;99.90
10294;DHT22;5192;50.328;7.610;2022-11-15T01:57:56;11.50;99.90
10294;DHT22;5192;50.328;7.610;2022-11-15T02:00:24;11.60;99.90
10294;DHT22;5192;50.328;7.610;2022-11-15T02:02:50;11.60;99.90
10294;DHT22;5192;50.328;7.610;2022-11-15T02:05:19;11.70;98.50
10294;DHT22;5192;50.328;7.610;2022-11-15T02:07:46;11.80;96.60
10294;DHT22;5192;50.328;7.610;2022-11-15T02:10:22;11.90;97.50
10294;DHT22;5192;50.328;7.610;2022-11-15T02:12:52;11.70;96.30
10294;DHT22;5192;50.328;7.610;2022-11-15T02:15:20;11.70;96.20
10294;DHT22;5192;50.328;7.610;2022-11-15T02:18:35;11.70;96.90
10294;DHT22;5192;50.328;7.610;2022-11-15T02:30:18;11.70;94.30
10294;DHT22;5192;50.328;7.610;2022-11-15T02:39:23;11.80;92.20
10294;DHT22;5192;50.328;7.610;2022-11-15T02:42:18;11.70;92.30
10294;DHT22;5192;50.328;7.610;2022-11-15T02:45:24;11.80;92.10
10294;DHT22;5192;50.328;7.610;2022-11-15T02:47:55;11.80;92.00
10294;DHT22;5192;50.328;7.610;2022-11-15T02:50:28;11.80;91.10
10294;DHT22;5192;50.328;7.610;2022-11-15T02:52:56;11.80;91.60
10294;DHT22;5192;50.328;7.610;2022-11-15T02:55:38;11.80;91.20
10294;DHT22;5192;50.328;7.610;2022-11-15T03:07:14;11.90;88.00
10294;DHT22;5192;50.328;7.610;2022-11-15T03:09:52;11.90;88.00
10294;DHT22;5192;50.328;7.610;2022-11-15T03:15:28;12.00;85.50
10294;DHT22;5192;50.328;7.610;2022-11-15T03:18:26;12.00;85.30
10294;DHT22;5192;50.328;7.610;2022-11-15T03:21:07;12.00;85.00
10294;DHT22;5192;50.328;7.610;2022-11-15T03:23:36;12.00;84.10
10294;DHT22;5192;50.328;7.610;2022-11-15T03:26:07;12.00;83.20
10294;DHT22;5192;50.328;7.610;2022-11-15T03:29:43;12.10;83.60
10294;DHT22;5192;50.328;7.610;2022-11-15T03:32:15;12.00;83.10
10294;DHT22;5192;50.328;7.610;2022-11-15T03:35:05;12.00;82.90
10294;DHT22;5192;50.328;7.610;2022-11-15T03:38:47;12.00;83.40
10294;DHT22;5192;50.328;7.610;2022-11-15T03:41:05;12.00;82.30
10294;DHT22;5192;50.328;7.610;2022-11-15T03:43:59;12.10;80.30
10294;DHT22;5192;50.328;7.610;2022-11-15T03:46:45;12.10;80.70
10294;DHT22;5192;50.328;7.610;2022-11-15T03:49:33;12.10;80.30
10294;DHT22;5192;50.328;7.610;2022-11-15T03:52:00;12.10;80.10
10294;DHT22;5192;50.328;7.610;2022-11-15T03:54:31;12.10;80.10
10294;DHT22;5192;50.328;7.610;2022-11-15T03:56:56;12.10;79.60
10294;DHT22;5192;50.328;7.610;2022-11-15T03:59:23;12.10;78.70
10294;DHT22;5192;50.328;7.610;2022-11-15T04:01:55;12.10;78.10
10294;DHT22;5192;50.328;7.610;2022-11-15T04:04:21;12.10;78.00
10294;DHT22;5192;50.328;7.610;2022-11-15T04:06:50;12.10;77.80
10294;DHT22;5192;50.328;7.610;2022-11-15T04:09:17;12.10;78.20
10294;DHT22;5192;50.328;7.610;2022-11-15T04:11:44;12.10;76.70
10294;DHT22;5192;50.328;7.610;2022-11-15T04:14:12;12.10;74.70
10294;DHT22;5192;50.328;7.610;2022-11-15T04:16:39;12.00;75.00
10294;DHT22;5192;50.328;7.610;2022-11-15T04:19:04;12.00;73.70
10294;DHT22;5192;50.328;7.610;2022-11-15T04:21:49;12.00;73.80
10294;DHT22;5192;50.328;7.610;2022-11-15T04:24:35;11.90;73.70
10294;DHT22;5192;50.328;7.610;2022-11-15T04:27:03;11.90;74.80
10294;DHT22;5192;50.328;7.610;2022-11-15T04:29:34;11.80;74.90
10294;DHT22;5192;50.328;7.610;2022-11-15T04:32:03;11.70;76.60
10294;DHT22;5192;50.328;7.610;2022-11-15T04:34:32;11.60;78.50
10294;DHT22;5192;50.328;7.610;2022-11-15T04:37:02;11.60;78.40
10294;DHT22;5192;50.328;7.610;2022-11-15T04:39:42;11.50;77.70
10294;DHT22;5192;50.328;7.610;2022-11-15T04:42:10;11.50;78.40
10294;DHT22;5192;50.328;7.610;2022-11-15T04:44:45;11.50;77.40
10294;DHT22;5192;50.328;7.610;2022-11-15T04:47:12;11.40;77.40
10294;DHT22;5192;50.328;7.610;2022-11-15T04:49:43;11.30;79.30
10294;DHT22;5192;50.328;7.610;2022-11-15T04:52:12;11.20;79.40
10294;DHT22;5192;50.328;7.610;2022-11-15T04:54:42;11.20;80.40
10294;DHT22;5192;50.328;7.610;2022-11-15T04:57:09;11.20;80.50
10294;DHT22;5192;50.328;7.610;2022-11-15T04:59:36;11.10;81.50
10294;DHT22;5192;50.328;7.610;2022-11-15T05:02:02;11.00;82.30
10294;DHT22;5192;50.328;7.610;2022-11-15T05:04:32;11.00;84.20
10294;DHT22;5192;50.328;7.610;2022-11-15T05:07:06;10.90;84.90
10294;DHT22;5192;50.328;7.610;2022-11-15T05:09:32;10.80;86.20
10294;DHT22;5192;50.328;7.610;2022-11-15T05:12:04;10.70;87.10
10294;DHT22;5192;50.328;7.610;2022-11-15T05:14:31;10.80;87.70
10294;DHT22;5192;50.328;7.610;2022-11-15T05:16:58;10.70;87.90
10294;DHT22;5192;50.328;7.610;2022-11-15T05:19:24;10.70;88.00
10294;DHT22;5192;50.328;7.610;2022-11-15T05:21:53;10.70;88.30
10294;DHT22;5192;50.328;7.610;2022-11-15T05:24:20;10.60;89.30
10294;DHT22;5192;50.328;7.610;2022-11-15T05:26:52;10.60;90.40
10294;DHT22;5192;50.328;7.610;2022-11-15T05:29:18;10.60;91.00
10294;DHT22;5192;50.328;7.610;2022-11-15T05:31:44;10.60;91.10
10294;DHT22;5192;50.328;7.610;2022-11-15T05:34:13;10.50;92.60
10294;DHT22;5192;50.328;7.610;2022-11-15T05:36:44;10.60;92.00
10294;DHT22;5192;50.328;7.610;2022-11-15T05:39:12;10.50;91.50
10294;DHT22;5192;50.328;7.610;2022-11-15T05:42:01;10.40;92.20
10294;DHT22;5192;50.328;7.610;2022-11-15T05:44:31;10.40;91.80
10294;DHT22;5192;50.328;7.610;2022-11-15T05:47:13;10.40;91.80
10294;DHT22;5192;50.328;7.610;2022-11-15T05:49:49;10.40;91.30
10294;DHT22;5192;50.328;7.610;2022-11-15T05:52:20;10.40;91.40
10294;DHT22;5192;50.328;7.610;2022-11-15T05:54:51;10.30;92.70
10294;DHT22;5192;50.328;7.610;2022-11-15T05:57:23;10.30;92.80
10294;DHT22;5192;50.328;7.610;2022-11-15T05:59:53;10.20;93.60
10294;DHT22;5192;50.328;7.610;2022-11-15T06:02:22;10.20;95.40
10294;DHT22;5192;50.328;7.610;2022-11-15T06:04:49;10.10;96.60
10294;DHT22;5192;50.328;7.610;2022-11-15T06:07:16;10.10;98.20
10294;DHT22;5192;50.328;7.610;2022-11-15T06:09:43;10.10;98.80
10294;DHT22;5192;50.328;7.610;2022-11-15T06:12:11;10.00;98.90
10294;DHT22;5192;50.328;7.610;2022-11-15T06:14:42;10.00;99.70
10294;DHT22;5192;50.328;7.610;2022-11-15T06:17:07;10.00;99.90
10294;DHT22;5192;50.328;7.610;2022-11-15T06:19:34;10.10;99.90
10294;DHT22;5192;50.328;7.610;2022-11-15T06:22:02;10.00;99.90
10294;DHT22;5192;50.328;7.610;2022-11-15T06:24:30;10.00;99.90
10294;DHT22;5192;50.328;7.610;2022-11-15T06:26:56;10.10;99.90
10294;DHT22;5192;50.328;7.610;2022-11-15T06:29:25;10.10;99.90
10294;DHT22;5192;50.328;7.610;2022-11-15T06:31:51;10.10;99.90
10294;DHT22;5192;50.328;7.610;2022-11-15T06:34:21;10.10;99.90
10294;DHT22;5192;50.328;7.610;2022-11-15T06:36:48;10.10;99.90
10294;DHT22;5192;50.328;7.610;2022-11-15T06:39:15;10.10;99.90
10294;DHT22;5192;50.328;7.610;2022-11-15T06:41:41;10.10;99.90
10294;DHT22;5192;50.328;7.610;2022-11-15T06:44:08;10.10;99.90
10294;DHT22;5192;50.328;7.610;2022-11-15T06:46:35;10.10;99.90
10294;DHT22;5192;50.328;7.610;2022-11-15T06:49:01;10.10;99.90
10294;DHT22;5192;50.328;7.610;2022-11-15T06:51:32;10.10;99.90
10294;DHT22;5192;50.328;7.610;2022-11-15T06:53:59;10.10;99.90
10294;DHT22;5192;50.328;7.610;2022-11-15T06:56:26;10.20;99.90
10294;DHT22;5192;50.328;7.610;2022-11-15T06:58:53;10.20;99.90
10294;DHT22;5192;50.328;7.610;2022-11-15T07:01:23;10.40;99.90
10294;DHT22;5192;50.328;7.610;2022-11-15T07:03:52;10.40;99.90
10294;DHT22;5192;50.328;7.610;2022-11-15T07:06:21;10.40;99.90
10294;DHT22;5192;50.328;7.610;2022-11-15T07:08:47;10.40;99.90
10294;DHT22;5192;50.328;7.610;2022-11-15T07:11:14;10.60;99.90
10294;DHT22;5192;50.328;7.610;2022-11-15T07:13:41;10.40;99.90
10294;DHT22;5192;50.328;7.610;2022-11-15T07:16:09;10.40;99.90
10294;DHT22;5192;50.328;7.610;2022-11-15T07:18:41;10.50;99.90
10294;DHT22;5192;50.328;7.610;2022-11-15T07:21:14;10.50;99.90
10294;DHT22;5192;50.328;7.610;2022-11-15T07:23:41;10.50;99.90
10294;DHT22;5192;50.328;7.610;2022-11-15T07:26:16;10.50;99.90
10294;DHT22;5192;50.328;7.610;2022-11-15T07:28:43;10.50;99.90
10294;DHT22;5192;50.328;7.610;2022-11-15T07:31:09;10.60;99.90
10294;DHT22;5192;50.328;7.610;2022-11-15T07:33:38;10.50;99.90
10294;DHT22;5192;50.328;7.610;2022-11-15T07:36:07;10.60;99.90
10294;DHT22;5192;50.328;7.610;2022-11-15T07:38:34;10.60;99.90
10294;DHT22;5192;50.328;7.610;2022-11-15T07:41:03;10.60;99.90
10294;DHT22;5192;50.328;7.610;2022-11-15T07:43:34;10.60;99.90
10294;DHT22;5192;50.328;7.610;2022-11-15T07:46:08;10.60;99.90
10294;DHT22;5192;50.328;7.610;2022-11-15T07:48:57;10.60;99.90
10294;DHT22;5192;50.328;7.610;2022-11-15T07:51:24;10.60;99.90
10294;DHT22;5192;50.328;7.610;2022-11-15T07:54:07;10.60;99.90
10294;DHT22;5192;50.328;7.610;2022-11-15T07:56:35;10.60;99.90
10294;DHT22;5192;50.328;7.610;2022-11-15T07:59:02;10.60;99.90
10294;DHT22;5192;50.328;7.610;2022-11-15T08:01:37;10.70;99.90
10294;DHT22;5192;50.328;7.610;2022-11-15T08:04:02;10.70;99.90
10294;DHT22;5192;50.328;7.610;2022-11-15T08:06:33;10.80;99.90
10294;DHT22;5192;50.328;7.610;2022-11-15T08:09:05;10.90;98.70
10294;DHT22;5192;50.328;7.610;2022-11-15T08:11:34;10.90;98.00
10294;DHT22;5192;50.328;7.610;2022-11-15T08:14:01;11.00;98.40
10294;DHT22;5192;50.328;7.610;2022-11-15T08:16:40;11.00;97.30
10294;DHT22;5192;50.328;7.610;2022-11-15T08:19:07;11.10;97.00
10294;DHT22;5192;50.328;7.610;2022-11-15T08:21:36;11.10;96.80
10294;DHT22;5192;50.328;7.610;2022-11-15T08:24:04;11.10;96.10
10294;DHT22;5192;50.328;7.610;2022-11-15T08:26:33;11.10;95.20
10294;DHT22;5192;50.328;7.610;2022-11-15T08:29:00;11.20;94.50
10294;DHT22;5192;50.328;7.610;2022-11-15T08:31:32;11.20;94.80
10294;DHT22;5192;50.328;7.610;2022-11-15T08:34:12;11.20;93.90
10294;DHT22;5192;50.328;7.610;2022-11-15T08:36:39;11.20;94.20
10294;DHT22;5192;50.328;7.610;2022-11-15T08:39:06;11.30;93.60
10294;DHT22;5192;50.328;7.610;2022-11-15T08:41:35;11.40;93.20
10294;DHT22;5192;50.328;7.610;2022-11-15T08:44:01;11.40;90.10
10294;DHT22;5192;50.328;7.610;2022-11-15T08:46:33;11.50;90.30
10294;DHT22;5192;50.328;7.610;2022-11-15T08:49:03;11.50;89.50
10294;DHT22;5192;50.328;7.610;2022-11-15T08:51:32;11.50;89.20
10294;DHT22;5192;50.328;7.610;2022-11-15T08:54:00;11.60;88.60
10294;DHT22;5192;50.328;7.610;2022-11-15T08:56:25;11.60;88.20
10294;DHT22;5192;50.328;7.610;2022-11-15T08:58:52;11.60;87.00
10294;DHT22;5192;50.328;7.610;2022-11-15T09:01:20;11.60;87.90
10294;DHT22;5192;50.328;7.610;2022-11-15T09:03:47;11.70;85.20
10294;DHT22;5192;50.328;7.610;2022-11-15T09:06:14;11.70;84.20
10294;DHT22;5192;50.328;7.610;2022-11-15T09:08:40;11.80;82.40
10294;DHT22;5192;50.328;7.610;2022-11-15T09:11:07;11.90;79.40
10294;DHT22;5192;50.328;7.610;2022-11-15T09:13:37;11.90;78.90
10294;DHT22;5192;50.328;7.610;2022-11-15T09:16:06;11.90;80.00
10294;DHT22;5192;50.328;7.610;2022-11-15T09:18:34;11.90;81.80
10294;DHT22;5192;50.328;7.610;2022-11-15T09:21:01;12.00;82.50
10294;DHT22;5192;50.328;7.610;2022-11-15T09:23:31;11.90;82.80
10294;DHT22;5192;50.328;7.610;2022-11-15T09:26:02;11.80;83.40
10294;DHT22;5192;50.328;7.610;2022-11-15T09:28:33;11.90;81.80
10294;DHT22;5192;50.328;7.610;2022-11-15T09:31:04;11.90;81.00
10294;DHT22;5192;50.328;7.610;2022-11-15T09:33:30;11.90;80.30
10294;DHT22;5192;50.328;7.610;2022-11-15T09:36:06;12.00;80.00
10294;DHT22;5192;50.328;7.610;2022-11-15T09:38:33;12.10;79.00
10294;DHT22;5192;50.328;7.610;2022-11-15T09:41:22;12.10;77.90
10294;DHT22;5192;50.328;7.610;2022-11-15T09:47:56;12.00;76.30
10294;DHT22;5192;50.328;7.610;2022-11-15T09:53:54;12.20;71.40
10294;DHT22;5192;50.328;7.610;2022-11-15T09:56:27;12.30;66.70
10294;DHT22;5192;50.328;7.610;2022-11-15T10:05:02;12.80;53.00
10294;DHT22;5192;50.328;7.610;2022-11-15T10:10:39;12.80;49.30
10294;DHT22;5192;50.328;7.610;2022-11-15T10:13:22;12.90;45.70
10294;DHT22;5192;50.328;7.610;2022-11-15T10:15:51;13.00;44.50
10294;DHT22;5192;50.328;7.610;2022-11-15T10:24:28;12.90;37.50
10294;DHT22;5192;50.328;7.610;2022-11-15T10:27:17;12.90;34.00
10294;DHT22;5192;50.328;7.610;2022-11-15T10:30:03;12.80;30.50
10294;DHT22;5192;50.328;7.610;2022-11-15T10:32:34;12.80;30.60
10294;DHT22;5192;50.328;7.610;2022-11-15T10:35:17;12.70;28.70
10294;DHT22;5192;50.328;7.610;2022-11-15T10:38:13;12.80;30.60
10294;DHT22;5192;50.328;7.610;2022-11-15T10:40:45;13.00;30.70
10294;DHT22;5192;50.328;7.610;2022-11-15T10:43:29;13.00;29.40
10294;DHT22;5192;50.328;7.610;2022-11-15T10:46:21;13.10;27.40
10294;DHT22;5192;50.328;7.610;2022-11-15T10:48:52;13.00;25.10
10294;DHT22;5192;50.328;7.610;2022-11-15T10:51:26;13.00;26.10
10294;DHT22;5192;50.328;7.610;2022-11-15T10:53:57;13.10;26.20
10294;DHT22;5192;50.328;7.610;2022-11-15T10:56:28;13.10;26.40
10294;DHT22;5192;50.328;7.610;2022-11-15T10:58:57;13.20;24.20
10294;DHT22;5192;50.328;7.610;2022-11-15T11:01:26;13.20;23.50
10294;DHT22;5192;50.328;7.610;2022-11-15T11:04:01;13.30;22.70
10294;DHT22;5192;50.328;7.610;2022-11-15T11:06:54;13.40;20.70
10294;DHT22;5192;50.328;7.610;2022-11-15T11:09:38;13.50;18.30
10294;DHT22;5192;50.328;7.610;2022-11-15T11:12:12;13.70;18.20
10294;DHT22;5192;50.328;7.610;2022-11-15T11:14:41;13.80;18.80
10294;DHT22;5192;50.328;7.610;2022-11-15T11:20:46;14.20;15.20
10294;DHT22;5192;50.328;7.610;2022-11-15T11:36:09;16.40;1.00
10294;DHT22;5192;50.328;7.610;2022-11-15T11:39:11;16.20;1.00
10294;DHT22;5192;50.328;7.610;2022-11-15T11:42:17;16.90;1.00
10294;DHT22;5192;50.328;7.610;2022-11-15T11:45:18;17.40;1.00
10294;DHT22;5192;50.328;7.610;2022-11-15T11:48:14;17.80;1.00
10294;DHT22;5192;50.328;7.610;2022-11-15T11:50:47;17.90;1.00
10294;DHT22;5192;50.328;7.610;2022-11-15T11:53:48;17.40;1.00
10294;DHT22;5192;50.328;7.610;2022-11-15T11:56:34;16.30;1.00
10294;DHT22;5192;50.328;7.610;2022-11-15T11:59:43;15.90;1.00
10294;DHT22;5192;50.328;7.610;2022-11-15T12:02:34;15.60;1.00
10294;DHT22;5192;50.328;7.610;2022-11-15T12:05:13;15.30;2.50
10294;DHT22;5192;50.328;7.610;2022-11-15T12:14:05;14.60;11.40
10294;DHT22;5192;50.328;7.610;2022-11-15T12:16:35;14.50;12.00
10294;DHT22;5192;50.328;7.610;2022-11-15T12:19:03;14.50;13.00
10294;DHT22;5192;50.328;7.610;2022-11-15T12:24:59;14.40;14.50
10294;DHT22;5192;50.328;7.610;2022-11-15T12:30:54;14.30;14.70
10294;DHT22;5192;50.328;7.610;2022-11-15T12:39:05;14.20;18.10
10294;DHT22;5192;50.328;7.610;2022-11-15T12:47:25;14.30;18.90
10294;DHT22;5192;50.328;7.610;2022-11-15T12:49:55;14.30;18.10
10294;DHT22;5192;50.328;7.610;2022-11-15T12:52:23;14.30;17.90
10294;DHT22;5192;50.328;7.610;2022-11-15T12:58:41;14.50;17.20
10294;DHT22;5192;50.328;7.610;2022-11-15T13:01:51;14.50;17.30
10294;DHT22;5192;50.328;7.610;2022-11-15T13:07:06;14.50;17.60
10294;DHT22;5192;50.328;7.610;2022-11-15T13:09:52;14.70;19.30
10294;DHT22;5192;50.328;7.610;2022-11-15T13:15:37;15.00;17.90
10294;DHT22;5192;50.328;7.610;2022-11-15T13:18:37;14.90;14.10
10294;DHT22;5192;50.328;7.610;2022-11-15T13:21:23;14.80;13.40
10294;DHT22;5192;50.328;7.610;2022-11-15T13:24:37;14.80;14.50
10294;DHT22;5192;50.328;7.610;2022-11-15T13:27:18;14.80;13.60
10294;DHT22;5192;50.328;7.610;2022-11-15T13:29:45;14.80;14.90
10294;DHT22;5192;50.328;7.610;2022-11-15T13:32:16;14.60;16.20
10294;DHT22;5192;50.328;7.610;2022-11-15T13:34:49;14.50;16.00
10294;DHT22;5192;50.328;7.610;2022-11-15T13:37:34;14.40;17.30
10294;DHT22;5192;50.328;7.610;2022-11-15T13:40:26;14.40;16.60
10294;DHT22;5192;50.328;7.610;2022-11-15T13:43:27;14.30;17.10
10294;DHT22;5192;50.328;7.610;2022-11-15T13:46:31;14.30;17.80
10294;DHT22;5192;50.328;7.610;2022-11-15T13:49:04;14.30;16.40
10294;DHT22;5192;50.328;7.610;2022-11-15T13:51:45;14.30;16.10
10294;DHT22;5192;50.328;7.610;2022-11-15T13:54:42;14.30;17.20
10294;DHT22;5192;50.328;7.610;2022-11-15T14:00:25;14.30;17.90
10294;DHT22;5192;50.328;7.610;2022-11-15T14:03:25;14.30;16.80
10294;DHT22;5192;50.328;7.610;2022-11-15T14:06:13;14.10;17.00
10294;DHT22;5192;50.328;7.610;2022-11-15T14:11:58;14.30;19.50
10294;DHT22;5192;50.328;7.610;2022-11-15T14:14:57;14.10;17.50
10294;DHT22;5192;50.328;7.610;2022-11-15T14:17:36;14.30;19.90
10294;DHT22;5192;50.328;7.610;2022-11-15T14:23:27;14.20;20.50
10294;DHT22;5192;50.328;7.610;2022-11-15T14:25:57;14.10;21.10
10294;DHT22;5192;50.328;7.610;2022-11-15T14:30:55;13.90;21.70
10294;DHT22;5192;50.328;7.610;2022-11-15T14:33:47;13.90;23.60
10294;DHT22;5192;50.328;7.610;2022-11-15T14:36:20;13.80;23.80
10294;DHT22;5192;50.328;7.610;2022-11-15T14:38:48;13.80;24.80
10294;DHT22;5192;50.328;7.610;2022-11-15T14:41:23;13.80;25.10
10294;DHT22;5192;50.328;7.610;2022-11-15T14:43:50;13.70;24.40
10294;DHT22;5192;50.328;7.610;2022-11-15T14:46:18;13.70;25.00
10294;DHT22;5192;50.328;7.610;2022-11-15T14:48:53;13.70;25.60
10294;DHT22;5192;50.328;7.610;2022-11-15T14:51:24;13.70;26.50
10294;DHT22;5192;50.328;7.610;2022-11-15T14:53:52;13.70;28.10
10294;DHT22;5192;50.328;7.610;2022-11-15T14:56:18;13.60;26.80
10294;DHT22;5192;50.328;7.610;2022-11-15T14:58:45;13.50;28.60
10294;DHT22;5192;50.328;7.610;2022-11-15T15:01:29;13.50;29.70
10294;DHT22;5192;50.328;7.610;2022-11-15T15:03:56;13.40;32.30
10294;DHT22;5192;50.328;7.610;2022-11-15T15:06:25;13.40;32.40
10294;DHT22;5192;50.328;7.610;2022-11-15T15:08:52;13.30;32.90
10294;DHT22;5192;50.328;7.610;2022-11-15T15:11:33;13.30;34.30
10294;DHT22;5192;50.328;7.610;2022-11-15T15:14:05;13.20;35.10
10294;DHT22;5192;50.328;7.610;2022-11-15T15:16:39;13.10;35.70
10294;DHT22;5192;50.328;7.610;2022-11-15T15:19:06;13.10;37.60
10294;DHT22;5192;50.328;7.610;2022-11-15T15:21:34;13.10;37.50
10294;DHT22;5192;50.328;7.610;2022-11-15T15:24:01;13.00;37.50
10294;DHT22;5192;50.328;7.610;2022-11-15T15:26:28;13.00;38.60
10294;DHT22;5192;50.328;7.610;2022-11-15T15:28:55;13.00;38.60
10294;DHT22;5192;50.328;7.610;2022-11-15T15:31:22;12.90;39.10
10294;DHT22;5192;50.328;7.610;2022-11-15T15:33:50;12.90;40.10
10294;DHT22;5192;50.328;7.610;2022-11-15T15:36:21;12.90;40.90
10294;DHT22;5192;50.328;7.610;2022-11-15T15:38:47;12.90;40.60
10294;DHT22;5192;50.328;7.610;2022-11-15T15:41:20;12.80;41.30
10294;DHT22;5192;50.328;7.610;2022-11-15T15:43:48;12.80;42.90
10294;DHT22;5192;50.328;7.610;2022-11-15T15:46:20;12.80;42.50
10294;DHT22;5192;50.328;7.610;2022-11-15T15:48:46;12.80;43.30
10294;DHT22;5192;50.328;7.610;2022-11-15T15:51:15;12.90;44.20
10294;DHT22;5192;50.328;7.610;2022-11-15T15:53:45;12.80;45.40
10294;DHT22;5192;50.328;7.610;2022-11-15T15:56:13;12.80;45.60
10294;DHT22;5192;50.328;7.610;2022-11-15T15:58:45;12.70;46.80
10294;DHT22;5192;50.328;7.610;2022-11-15T16:01:11;12.70;48.10
10294;DHT22;5192;50.328;7.610;2022-11-15T16:03:38;12.70;48.40
10294;DHT22;5192;50.328;7.610;2022-11-15T16:06:47;12.70;49.50
10294;DHT22;5192;50.328;7.610;2022-11-15T16:09:23;12.80;50.10
10294;DHT22;5192;50.328;7.610;2022-11-15T16:12:10;12.60;51.00
10294;DHT22;5192;50.328;7.610;2022-11-15T16:14:38;12.60;52.10
10294;DHT22;5192;50.328;7.610;2022-11-15T16:17:14;12.60;52.80
10294;DHT22;5192;50.328;7.610;2022-11-15T16:19:46;12.60;53.30
10294;DHT22;5192;50.328;7.610;2022-11-15T16:22:21;12.60;53.40
10294;DHT22;5192;50.328;7.610;2022-11-15T16:24:47;12.60;53.80
10294;DHT22;5192;50.328;7.610;2022-11-15T16:27:18;12.50;55.10
10294;DHT22;5192;50.328;7.610;2022-11-15T16:30:20;12.50;54.80
10294;DHT22;5192;50.328;7.610;2022-11-15T16:32:49;12.50;55.10
10294;DHT22;5192;50.328;7.610;2022-11-15T16:35:17;12.50;55.50
10294;DHT22;5192;50.328;7.610;2022-11-15T16:37:45;12.50;56.20
10294;DHT22;5192;50.328;7.610;2022-11-15T16:40:26;12.50;56.90
10294;DHT22;5192;50.328;7.610;2022-11-15T16:43:02;12.50;57.20
10294;DHT22;5192;50.328;7.610;2022-11-15T16:45:34;12.40;57.80
10294;DHT22;5192;50.328;7.610;2022-11-15T16:48:00;12.40;58.30
10294;DHT22;5192;50.328;7.610;2022-11-15T16:50:33;12.40;59.40
10294;DHT22;5192;50.328;7.610;2022-11-15T16:53:08;12.40;58.60
10294;DHT22;5192;50.328;7.610;2022-11-15T16:55:35;12.40;59.80
10294;DHT22;5192;50.328;7.610;2022-11-15T16:58:02;12.40;59.60
10294;DHT22;5192;50.328;7.610;2022-11-15T17:00:29;12.40;60.00
10294;DHT22;5192;50.328;7.610;2022-11-15T17:02:57;12.40;59.50
10294;DHT22;5192;50.328;7.610;2022-11-15T17:05:28;12.40;59.80
10294;DHT22;5192;50.328;7.610;2022-11-15T17:07:53;12.40;60.00
10294;DHT22;5192;50.328;7.610;2022-11-15T17:10:21;12.40;60.60
10294;DHT22;5192;50.328;7.610;2022-11-15T17:12:47;12.40;60.70
10294;DHT22;5192;50.328;7.610;2022-11-15T17:15:16;12.50;61.00
10294;DHT22;5192;50.328;7.610;2022-11-15T17:17:43;12.40;60.40
10294;DHT22;5192;50.328;7.610;2022-11-15T17:20:15;12.40;61.20
10294;DHT22;5192;50.328;7.610;2022-11-15T17:22:43;12.40;61.70
10294;DHT22;5192;50.328;7.610;2022-11-15T17:25:11;12.40;61.60
10294;DHT22;5192;50.328;7.610;2022-11-15T17:27:38;12.40;60.90
10294;DHT22;5192;50.328;7.610;2022-11-15T17:30:06;12.40;60.60
10294;DHT22;5192;50.328;7.610;2022-11-15T17:32:35;12.40;61.60
10294;DHT22;5192;50.328;7.610;2022-11-15T17:35:03;12.40;60.10
10294;DHT22;5192;50.328;7.610;2022-11-15T17:37:31;12.40;58.60
10294;DHT22;5192;50.328;7.610;2022-11-15T17:39:58;12.40;58.70
10294;DHT22;5192;50.328;7.610;2022-11-15T17:42:25;12.40;58.60
10294;DHT22;5192;50.328;7.610;2022-11-15T17:44:51;12.40;60.20
10294;DHT22;5192;50.328;7.610;2022-11-15T17:47:18;12.50;58.30
10294;DHT22;5192;50.328;7.610;2022-11-15T17:49:48;12.40;58.20
10294;DHT22;5192;50.328;7.610;2022-11-15T17:52:16;12.40;58.70
10294;DHT22;5192;50.328;7.610;2022-11-15T17:54:43;12.40;59.40
10294;DHT22;5192;50.328;7.610;2022-11-15T17:57:11;12.40;59.60
10294;DHT22;5192;50.328;7.610;2022-11-15T17:59:38;12.40;59.90
10294;DHT22;5192;50.328;7.610;2022-11-15T18:02:05;12.40;60.20
10294;DHT22;5192;50.328;7.610;2022-11-15T18:04:31;12.40;61.30
10294;DHT22;5192;50.328;7.610;2022-11-15T18:06:58;12.50;61.30
10294;DHT22;5192;50.328;7.610;2022-11-15T18:09:25;12.30;62.30
10294;DHT22;5192;50.328;7.610;2022-11-15T18:11:52;12.40;61.90
10294;DHT22;5192;50.328;7.610;2022-11-15T18:14:24;12.30;62.20
10294;DHT22;5192;50.328;7.610;2022-11-15T18:16:53;12.30;62.80
10294;DHT22;5192;50.328;7.610;2022-11-15T18:19:21;12.30;63.00
10294;DHT22;5192;50.328;7.610;2022-11-15T18:21:48;12.30;63.00